createdAt,value
2023-03-26T00:00:34.085Z,6.68
2023-03-26T00:01:38.715Z,6.67
2023-03-26T00:02:41.077Z,6.67
2023-03-26T00:03:44.935Z,6.67
2023-03-26T00:04:46.475Z,6.64
2023-03-26T00:05:49.880Z,6.65
2023-03-26T00:06:51.803Z,6.64
2023-03-26T00:07:53.347Z,6.63
2023-03-26T00:08:55.756Z,6.64
2023-03-26T00:09:58.962Z,6.62
2023-03-26T00:11:01.199Z,6.63
2023-03-26T00:12:05.190Z,6.63
2023-03-26T00:13:06.790Z,6.62
2023-03-26T00:14:13.997Z,6.62
2023-03-26T00:15:18.132Z,6.63
2023-03-26T00:16:20.380Z,6.63
2023-03-26T00:17:21.984Z,6.64
2023-03-26T00:18:42.543Z,6.64
2023-03-26T00:19:44.235Z,6.64
2023-03-26T00:20:48.564Z,6.63
2023-03-26T00:21:51.752Z,6.64
2023-03-26T00:22:55.091Z,6.64
2023-03-26T00:23:59.543Z,6.64
2023-03-26T00:25:01.413Z,6.64
2023-03-26T00:26:05.407Z,6.65
2023-03-26T00:27:09.654Z,6.65
2023-03-26T00:28:11.402Z,6.65
2023-03-26T00:29:14.076Z,6.67
2023-03-26T00:30:16.519Z,6.67
2023-03-26T00:31:18.196Z,6.68
2023-03-26T00:32:19.725Z,6.67
2023-03-26T00:33:23.663Z,6.66
2023-03-26T00:34:26.704Z,6.67
2023-03-26T00:35:34.733Z,6.66
2023-03-26T00:36:36.342Z,6.67
2023-03-26T00:37:37.817Z,6.67
2023-03-26T00:38:39.427Z,6.67
2023-03-26T00:39:42.751Z,6.69
2023-03-26T00:40:50.152Z,6.67
2023-03-26T00:41:54.228Z,6.68
2023-03-26T00:42:56.030Z,6.69
2023-03-26T00:43:58.557Z,6.69
2023-03-26T00:44:59.971Z,6.69
2023-03-26T00:46:03.553Z,6.69
2023-03-26T00:47:05.039Z,6.69
2023-03-26T00:48:06.618Z,6.69
2023-03-26T00:49:10.850Z,6.68
2023-03-26T00:50:15.555Z,6.67
2023-03-26T00:51:18.173Z,6.66
2023-03-26T00:52:20.040Z,6.65
2023-03-26T00:53:22.002Z,6.64
2023-03-26T00:54:27.363Z,6.64
2023-03-26T00:55:29.013Z,6.62
2023-03-26T00:56:31.929Z,6.62
2023-03-26T00:57:35.901Z,6.60
2023-03-26T00:58:38.615Z,6.61
2023-03-26T00:59:40.575Z,6.60
2023-03-26T01:00:58.926Z,6.61
2023-03-26T01:02:00.462Z,6.59
2023-03-26T01:03:04.670Z,6.60
2023-03-26T01:04:21.127Z,6.58
2023-03-26T01:05:34.489Z,6.59
2023-03-26T01:06:42.077Z,6.58
2023-03-26T01:07:44.769Z,6.58
2023-03-26T01:08:50.380Z,6.56
2023-03-26T01:09:51.841Z,6.55
2023-03-26T01:11:02.684Z,6.55
2023-03-26T01:12:06.610Z,6.54
2023-03-26T01:13:08.767Z,6.53
2023-03-26T01:14:14.689Z,6.52
2023-03-26T01:15:16.228Z,6.51
2023-03-26T01:16:28.548Z,6.52
2023-03-26T01:17:34.177Z,6.51
2023-03-26T01:18:41.076Z,6.50
2023-03-26T01:19:47.876Z,6.48
2023-03-26T01:20:58.441Z,6.48
2023-03-26T01:22:00.603Z,6.49
2023-03-26T01:23:05.290Z,6.48
2023-03-26T01:24:08.067Z,6.47
2023-03-26T01:25:09.819Z,6.47
2023-03-26T01:26:17.608Z,6.47
2023-03-26T01:27:24.554Z,6.45
2023-03-26T01:28:29.055Z,6.45
2023-03-26T01:29:33.585Z,6.45
2023-03-26T01:30:58.624Z,6.45
2023-03-26T01:32:00.129Z,6.46
2023-03-26T01:33:07.432Z,6.46
2023-03-26T01:34:12.298Z,6.46
2023-03-26T01:35:32.493Z,6.46
2023-03-26T01:36:48.896Z,6.47
2023-03-26T01:37:58.504Z,6.46
2023-03-26T01:39:18.684Z,6.46
2023-03-26T01:40:26.258Z,6.46
2023-03-26T01:41:46.487Z,6.47
2023-03-26T01:42:52.579Z,6.46
2023-03-26T01:43:57.933Z,6.46
2023-03-26T01:45:15.453Z,6.46
2023-03-26T01:46:19.254Z,6.45
2023-03-26T01:47:21.374Z,6.45
2023-03-26T01:48:29.015Z,6.46
2023-03-26T01:49:31.064Z,6.46
2023-03-26T01:50:34.780Z,6.46
2023-03-26T01:51:36.399Z,6.47
2023-03-26T01:52:38.313Z,6.46
2023-03-26T01:53:42.763Z,6.48
2023-03-26T01:54:46.543Z,6.46
2023-03-26T01:56:10.840Z,6.46
2023-03-26T01:57:20.315Z,6.46
2023-03-26T01:58:30.931Z,6.46
2023-03-26T01:59:35.223Z,6.46
2023-03-26T02:00:48.748Z,6.46
2023-03-26T02:02:05.609Z,6.46
2023-03-26T02:03:09.045Z,6.46
2023-03-26T02:04:19.436Z,6.45
2023-03-26T02:05:26.384Z,6.44
2023-03-26T02:06:37.447Z,6.43
2023-03-26T02:07:44.811Z,6.43
2023-03-26T02:08:53.334Z,6.40
2023-03-26T02:09:59.422Z,6.40
2023-03-26T02:11:04.371Z,6.37
2023-03-26T02:12:06.926Z,6.35
2023-03-26T02:13:09.069Z,6.34
2023-03-26T02:14:10.880Z,6.30
2023-03-26T02:15:12.638Z,6.31
2023-03-26T02:16:16.240Z,6.29
2023-03-26T02:17:19.105Z,6.28
2023-03-26T02:18:24.363Z,6.28
2023-03-26T02:19:27.122Z,6.27
2023-03-26T02:20:31.643Z,6.27
2023-03-26T02:21:34.250Z,6.26
2023-03-26T02:22:40.731Z,6.25
2023-03-26T02:23:47.060Z,6.23
2023-03-26T02:24:49.267Z,6.23
2023-03-26T02:25:53.988Z,6.22
2023-03-26T02:26:55.993Z,6.22
2023-03-26T02:27:58.388Z,6.22
2023-03-26T02:29:01.607Z,6.19
2023-03-26T02:30:07.883Z,6.15
2023-03-26T02:31:11.053Z,6.13
2023-03-26T02:32:15.416Z,6.11
2023-03-26T02:33:17.512Z,6.10
2023-03-26T02:34:19.143Z,6.09
2023-03-26T02:35:25.094Z,6.06
2023-03-26T02:36:32.338Z,6.04
2023-03-26T02:37:39.209Z,6.02
2023-03-26T02:38:49.113Z,5.99
2023-03-26T02:39:50.799Z,5.98
2023-03-26T02:41:01.615Z,5.95
2023-03-26T02:42:13.767Z,5.92
2023-03-26T02:43:21.810Z,5.90
2023-03-26T02:44:23.533Z,5.88
2023-03-26T02:45:34.053Z,5.87
2023-03-26T02:47:10.432Z,5.82
2023-03-26T02:48:28.204Z,5.82
2023-03-26T02:49:38.207Z,5.81
2023-03-26T02:50:39.883Z,5.79
2023-03-26T02:52:00.456Z,5.78
2023-03-26T02:53:03.245Z,5.79
2023-03-26T02:54:11.035Z,5.77
2023-03-26T02:55:29.948Z,5.77
2023-03-26T02:56:34.871Z,5.76
2023-03-26T02:57:51.161Z,5.76
2023-03-26T02:58:54.829Z,5.75
2023-03-26T02:59:57.501Z,5.74
2023-03-26T03:01:11.445Z,5.72
2023-03-26T03:02:24.449Z,5.71
2023-03-26T03:03:34.026Z,5.70
2023-03-26T03:04:36.873Z,5.68
2023-03-26T03:05:43.406Z,5.68
2023-03-26T03:06:52.985Z,5.67
2023-03-26T03:07:58.017Z,5.66
2023-03-26T03:09:02.751Z,5.64
2023-03-26T03:10:10.274Z,5.63
2023-03-26T03:11:38.131Z,5.62
2023-03-26T03:12:41.003Z,5.63
2023-03-26T03:13:43.361Z,5.60
2023-03-26T03:14:44.921Z,5.60
2023-03-26T03:15:46.364Z,5.60
2023-03-26T03:16:47.917Z,5.58
2023-03-26T03:17:49.495Z,5.56
2023-03-26T03:18:57.875Z,5.55
2023-03-26T03:20:02.020Z,5.54
2023-03-26T03:21:06.733Z,5.55
2023-03-26T03:22:08.523Z,5.53
2023-03-26T03:23:10.749Z,5.53
2023-03-26T03:24:14.054Z,5.52
2023-03-26T03:25:25.977Z,5.54
2023-03-26T03:26:29.575Z,5.53
2023-03-26T03:27:34.719Z,5.52
2023-03-26T03:28:41.820Z,5.50
2023-03-26T03:29:43.411Z,5.47
2023-03-26T03:31:09.245Z,5.45
2023-03-26T03:32:11.812Z,5.46
2023-03-26T03:33:20.447Z,5.44
2023-03-26T03:34:23.420Z,5.43
2023-03-26T03:35:28.159Z,5.43
2023-03-26T03:36:33.396Z,5.41
2023-03-26T03:37:41.706Z,5.40
2023-03-26T03:38:44.539Z,5.38
2023-03-26T03:39:50.992Z,5.37
2023-03-26T03:40:55.502Z,5.37
2023-03-26T03:42:01.743Z,5.36
2023-03-26T03:43:03.677Z,5.34
2023-03-26T03:44:14.648Z,5.34
2023-03-26T03:45:18.906Z,5.33
2023-03-26T03:46:40.757Z,5.33
2023-03-26T03:47:42.328Z,5.31
2023-03-26T03:48:48.493Z,5.30
2023-03-26T03:49:51.860Z,5.29
2023-03-26T03:50:54.044Z,5.29
2023-03-26T03:52:01.556Z,5.29
2023-03-26T03:53:11.635Z,5.28
2023-03-26T03:54:15.624Z,5.29
2023-03-26T03:55:19.751Z,5.28
2023-03-26T03:56:26.206Z,5.28
2023-03-26T03:57:59.964Z,5.29
2023-03-26T03:59:03.947Z,5.30
2023-03-26T04:00:10.064Z,5.29
2023-03-26T04:01:18.755Z,5.29
2023-03-26T04:02:34.958Z,5.28
2023-03-26T04:03:40.019Z,5.27
2023-03-26T04:04:50.020Z,5.27
2023-03-26T04:05:55.114Z,5.27
2023-03-26T04:06:58.958Z,5.26
2023-03-26T04:08:05.873Z,5.25
2023-03-26T04:09:22.586Z,5.25
2023-03-26T04:10:24.697Z,5.23
2023-03-26T04:11:37.872Z,5.22
2023-03-26T04:13:09.164Z,5.21
2023-03-26T04:14:25.715Z,5.19
2023-03-26T04:15:37.899Z,5.17
2023-03-26T04:16:41.551Z,5.17
2023-03-26T04:17:45.252Z,5.14
2023-03-26T04:18:49.396Z,5.14
2023-03-26T04:19:53.000Z,5.12
2023-03-26T04:20:55.618Z,5.12
2023-03-26T04:22:02.725Z,5.09
2023-03-26T04:23:13.982Z,5.09
2023-03-26T04:24:20.451Z,5.08
2023-03-26T04:25:54.385Z,5.07
2023-03-26T04:27:06.567Z,5.07
2023-03-26T04:28:14.458Z,5.06
2023-03-26T04:29:49.797Z,5.06
2023-03-26T04:30:57.119Z,5.06
2023-03-26T04:32:26.657Z,5.05
2023-03-26T04:33:33.726Z,5.06
2023-03-26T04:34:36.288Z,5.05
2023-03-26T04:35:46.115Z,5.06
2023-03-26T04:36:49.788Z,5.02
2023-03-26T04:37:53.014Z,5.03
2023-03-26T04:39:03.560Z,5.03
2023-03-26T04:40:24.945Z,5.02
2023-03-26T04:41:47.051Z,5.02
2023-03-26T04:42:54.557Z,5.01
2023-03-26T04:44:08.734Z,5.01
2023-03-26T04:45:32.836Z,5.01
2023-03-26T04:46:34.922Z,5.01
2023-03-26T04:47:50.270Z,5.02
2023-03-26T04:48:52.633Z,5.02
2023-03-26T04:49:56.633Z,5.02
2023-03-26T04:50:58.593Z,5.03
2023-03-26T04:52:00.305Z,5.02
2023-03-26T04:53:27.903Z,5.02
2023-03-26T04:54:47.775Z,5.02
2023-03-26T04:56:09.139Z,5.03
2023-03-26T04:57:46.123Z,5.02
2023-03-26T04:59:01.283Z,5.01
2023-03-26T05:00:16.565Z,5.01
2023-03-26T05:01:24.574Z,5.01
2023-03-26T05:02:28.647Z,5.00
2023-03-26T05:03:31.171Z,4.99
2023-03-26T05:04:39.601Z,4.99
2023-03-26T05:05:42.237Z,4.99
2023-03-26T05:06:48.588Z,4.99
2023-03-26T05:07:59.595Z,4.99
2023-03-26T05:09:02.026Z,4.99
2023-03-26T05:10:36.507Z,4.99
2023-03-26T05:11:40.369Z,4.99
2023-03-26T05:12:42.490Z,4.99
2023-03-26T05:13:51.472Z,4.97
2023-03-26T05:14:53.614Z,4.96
2023-03-26T05:16:06.505Z,4.97
2023-03-26T05:17:14.774Z,4.96
2023-03-26T05:18:21.428Z,4.96
2023-03-26T05:19:26.319Z,4.96
2023-03-26T05:20:30.215Z,4.96
2023-03-26T05:21:32.253Z,4.97
2023-03-26T05:22:36.657Z,4.96
2023-03-26T05:23:49.014Z,4.95
2023-03-26T05:24:57.689Z,4.94
2023-03-26T05:25:59.099Z,4.95
2023-03-26T05:27:01.246Z,4.94
2023-03-26T05:28:03.412Z,4.94
2023-03-26T05:29:20.186Z,4.94
2023-03-26T05:30:27.718Z,4.95
2023-03-26T05:31:33.629Z,4.94
2023-03-26T05:32:36.476Z,4.93
2023-03-26T05:33:38.615Z,4.93
2023-03-26T05:34:43.436Z,4.93
2023-03-26T05:35:48.106Z,4.93
2023-03-26T05:36:57.486Z,4.93
2023-03-26T05:38:19.550Z,4.92
2023-03-26T05:39:25.665Z,4.91
2023-03-26T05:40:48.473Z,4.90
2023-03-26T05:41:53.840Z,4.89
2023-03-26T05:42:59.777Z,4.88
2023-03-26T05:44:18.746Z,4.88
2023-03-26T05:45:22.344Z,4.87
2023-03-26T05:46:23.878Z,4.86
2023-03-26T05:47:26.120Z,4.86
2023-03-26T05:48:28.744Z,4.86
2023-03-26T05:49:30.610Z,4.84
2023-03-26T05:50:32.633Z,4.83
2023-03-26T05:51:35.402Z,4.81
2023-03-26T05:53:04.576Z,4.81
2023-03-26T05:54:32.179Z,4.80
2023-03-26T05:55:36.790Z,4.79
2023-03-26T05:56:57.324Z,4.78
2023-03-26T05:58:17.436Z,4.79
2023-03-26T05:59:37.551Z,4.79
2023-03-26T06:00:59.968Z,4.78
2023-03-26T06:02:11.065Z,4.78
2023-03-26T06:03:12.968Z,4.78
2023-03-26T06:04:35.250Z,4.77
2023-03-26T06:05:59.194Z,4.77
2023-03-26T06:07:17.848Z,4.76
2023-03-26T06:08:27.751Z,4.75
2023-03-26T06:09:29.551Z,4.77
2023-03-26T06:10:31.522Z,4.78
2023-03-26T06:11:37.576Z,4.77
2023-03-26T06:12:43.787Z,4.78
2023-03-26T06:13:46.039Z,4.79
2023-03-26T06:14:49.233Z,4.78
2023-03-26T06:16:10.602Z,4.79
2023-03-26T06:17:41.403Z,4.79
2023-03-26T06:19:09.332Z,4.79
2023-03-26T06:20:33.161Z,4.79
2023-03-26T06:21:39.719Z,4.79
2023-03-26T06:22:50.286Z,4.78
2023-03-26T06:24:16.441Z,4.78
2023-03-26T06:25:25.178Z,4.78
2023-03-26T06:26:59.618Z,4.77
2023-03-26T06:28:21.471Z,4.75
2023-03-26T06:29:52.572Z,4.76
2023-03-26T06:31:13.344Z,4.74
2023-03-26T06:32:28.825Z,4.74
2023-03-26T06:33:40.575Z,4.76
2023-03-26T06:34:43.565Z,4.75
2023-03-26T06:35:50.666Z,4.77
2023-03-26T06:36:52.740Z,4.75
2023-03-26T06:37:56.010Z,4.77
2023-03-26T06:38:57.718Z,4.75
2023-03-26T06:39:59.219Z,4.75
2023-03-26T06:41:22.409Z,4.74
2023-03-26T06:43:08.022Z,4.74
2023-03-26T06:44:29.372Z,4.75
2023-03-26T06:45:52.752Z,4.77
2023-03-26T06:47:12.683Z,4.79
2023-03-26T06:48:31.035Z,4.80
2023-03-26T06:49:51.472Z,4.82
2023-03-26T06:51:13.701Z,4.84
2023-03-26T06:52:38.578Z,4.87
2023-03-26T06:54:10.845Z,4.91
2023-03-26T06:55:26.199Z,4.91
2023-03-26T06:56:36.743Z,4.94
2023-03-26T06:58:01.063Z,4.97
2023-03-26T06:59:23.276Z,4.98
2023-03-26T07:00:43.576Z,5.01
2023-03-26T07:02:05.199Z,5.00
2023-03-26T07:03:35.629Z,5.00
2023-03-26T07:04:56.175Z,5.01
2023-03-26T07:06:35.089Z,4.99
2023-03-26T07:07:55.323Z,5.02
2023-03-26T07:09:15.692Z,5.02
2023-03-26T07:10:35.924Z,5.04
2023-03-26T07:11:49.216Z,5.02
2023-03-26T07:13:09.585Z,5.02
2023-03-26T07:14:13.494Z,5.02
2023-03-26T07:15:24.116Z,5.03
2023-03-26T07:16:44.222Z,5.03
2023-03-26T07:18:05.118Z,5.05
2023-03-26T07:19:09.476Z,5.05
2023-03-26T07:20:18.444Z,5.05
2023-03-26T07:21:21.547Z,5.05
2023-03-26T07:22:24.480Z,5.06
2023-03-26T07:23:47.845Z,5.04
2023-03-26T07:25:12.937Z,5.03
2023-03-26T07:26:44.923Z,5.03
2023-03-26T07:28:06.622Z,5.03
2023-03-26T07:29:40.554Z,5.04
2023-03-26T07:31:04.976Z,5.09
2023-03-26T07:32:21.526Z,5.10
2023-03-26T07:33:44.555Z,5.10
2023-03-26T07:35:16.244Z,5.09
2023-03-26T07:36:45.404Z,5.09
2023-03-26T07:38:14.952Z,5.12
2023-03-26T07:39:28.913Z,5.15
2023-03-26T07:41:03.819Z,5.16
2023-03-26T07:42:25.472Z,5.16
2023-03-26T07:44:19.312Z,5.18
2023-03-26T07:45:57.590Z,5.17
2023-03-26T07:47:04.697Z,5.18
2023-03-26T07:48:40.756Z,5.22
2023-03-26T07:49:46.424Z,5.24
2023-03-26T07:51:20.855Z,5.27
2023-03-26T07:52:29.401Z,5.29
2023-03-26T07:53:39.594Z,5.30
2023-03-26T07:55:13.489Z,5.31
2023-03-26T07:56:54.105Z,5.32
2023-03-26T07:58:22.600Z,5.33
2023-03-26T07:59:48.821Z,5.35
2023-03-26T08:00:57.521Z,5.39
2023-03-26T08:02:14.081Z,5.42
2023-03-26T08:03:24.797Z,5.46
2023-03-26T08:04:49.358Z,5.51
2023-03-26T08:06:18.379Z,5.57
2023-03-26T08:07:53.291Z,5.59
2023-03-26T08:09:07.585Z,5.61
2023-03-26T08:10:48.635Z,5.63
2023-03-26T08:11:58.613Z,5.65
2023-03-26T08:13:00.343Z,5.65
2023-03-26T08:14:21.803Z,5.68
2023-03-26T08:15:25.602Z,5.70
2023-03-26T08:16:30.148Z,5.72
2023-03-26T08:17:42.769Z,5.74
2023-03-26T08:18:56.113Z,5.76
2023-03-26T08:20:07.593Z,5.77
2023-03-26T08:21:16.947Z,5.79
2023-03-26T08:22:29.357Z,5.83
2023-03-26T08:23:31.336Z,5.87
2023-03-26T08:24:43.547Z,5.88
2023-03-26T08:26:03.440Z,5.91
2023-03-26T08:27:22.731Z,5.91
2023-03-26T08:28:44.709Z,5.93
2023-03-26T08:30:08.495Z,5.95
2023-03-26T08:31:14.488Z,5.92
2023-03-26T08:32:19.391Z,5.94
2023-03-26T08:33:23.927Z,5.94
2023-03-26T08:34:25.482Z,5.92
2023-03-26T08:35:27.800Z,5.95
2023-03-26T08:36:29.615Z,5.97
2023-03-26T08:37:33.593Z,5.99
2023-03-26T08:38:35.187Z,6.02
2023-03-26T08:39:38.766Z,6.01
2023-03-26T08:40:44.368Z,6.04
2023-03-26T08:41:51.935Z,6.07
2023-03-26T08:43:12.602Z,6.11
2023-03-26T08:44:17.407Z,6.14
2023-03-26T08:45:29.276Z,6.17
2023-03-26T08:46:33.751Z,6.19
2023-03-26T08:47:57.223Z,6.21
2023-03-26T08:49:17.615Z,6.24
2023-03-26T08:50:39.454Z,6.24
2023-03-26T08:52:12.150Z,6.28
2023-03-26T08:53:28.565Z,6.32
2023-03-26T08:54:57.524Z,6.35
2023-03-26T08:56:03.433Z,6.37
2023-03-26T08:57:30.935Z,6.33
2023-03-26T08:58:41.731Z,6.31
2023-03-26T09:00:02.821Z,6.34
2023-03-26T09:01:16.731Z,6.36
2023-03-26T09:02:37.388Z,6.40
2023-03-26T09:03:53.686Z,6.48
2023-03-26T09:04:58.386Z,6.53
2023-03-26T09:06:03.099Z,6.55
2023-03-26T09:07:23.416Z,6.55
2023-03-26T09:08:53.878Z,6.57
2023-03-26T09:10:09.081Z,6.57
2023-03-26T09:11:19.597Z,6.56
2023-03-26T09:12:33.372Z,6.61
2023-03-26T09:13:34.881Z,6.66
2023-03-26T09:15:01.087Z,6.70
2023-03-26T09:16:18.425Z,6.75
2023-03-26T09:17:53.214Z,6.80
2023-03-26T09:18:59.094Z,6.82
2023-03-26T09:20:00.573Z,6.81
2023-03-26T09:21:01.937Z,6.82
2023-03-26T09:22:15.317Z,6.84
2023-03-26T09:23:35.843Z,6.86
2023-03-26T09:24:37.292Z,6.90
2023-03-26T09:25:57.615Z,6.92
2023-03-26T09:27:14.102Z,6.99
2023-03-26T09:28:29.179Z,7.06
2023-03-26T09:29:34.449Z,7.11
2023-03-26T09:30:38.557Z,7.15
2023-03-26T09:32:00.420Z,7.17
2023-03-26T09:33:06.457Z,7.20
2023-03-26T09:34:26.943Z,7.24
2023-03-26T09:35:31.446Z,7.27
2023-03-26T09:36:45.281Z,7.28
2023-03-26T09:37:56.740Z,7.29
2023-03-26T09:39:09.687Z,7.31
2023-03-26T09:40:14.174Z,7.33
2023-03-26T09:41:17.707Z,7.36
2023-03-26T09:42:34.467Z,7.37
2023-03-26T09:43:58.758Z,7.39
2023-03-26T09:45:18.972Z,7.32
2023-03-26T09:46:32.675Z,7.30
2023-03-26T09:47:37.537Z,7.26
2023-03-26T09:48:50.519Z,7.25
2023-03-26T09:50:03.598Z,7.24
2023-03-26T09:51:20.384Z,7.24
2023-03-26T09:52:21.800Z,7.26
2023-03-26T09:53:41.623Z,7.30
2023-03-26T09:55:08.044Z,7.35
2023-03-26T09:56:09.632Z,7.38
2023-03-26T09:57:11.068Z,7.36
2023-03-26T09:58:18.082Z,7.39
2023-03-26T09:59:37.940Z,7.38
2023-03-26T10:00:48.027Z,7.36
2023-03-26T10:01:57.955Z,7.34
2023-03-26T10:03:20.850Z,7.31
2023-03-26T10:04:41.272Z,7.30
2023-03-26T10:05:54.897Z,7.28
2023-03-26T10:07:05.389Z,7.30
2023-03-26T10:08:28.830Z,7.28
2023-03-26T10:09:37.771Z,7.32
2023-03-26T10:10:39.179Z,7.36
2023-03-26T10:11:56.016Z,7.44
2023-03-26T10:13:14.898Z,7.55
2023-03-26T10:14:25.785Z,7.64
2023-03-26T10:15:32.464Z,7.73
2023-03-26T10:16:52.509Z,7.79
2023-03-26T10:18:27.697Z,7.87
2023-03-26T10:19:54.354Z,7.96
2023-03-26T10:21:01.681Z,8.00
2023-03-26T10:22:22.047Z,7.98
2023-03-26T10:23:39.872Z,7.94
2023-03-26T10:24:47.673Z,7.91
2023-03-26T10:26:01.442Z,7.89
2023-03-26T10:27:18.913Z,7.89
2023-03-26T10:28:37.392Z,7.91
2023-03-26T10:29:58.680Z,7.95
2023-03-26T10:31:09.080Z,8.02
2023-03-26T10:32:27.434Z,8.03
2023-03-26T10:33:47.976Z,8.10
2023-03-26T10:35:11.696Z,8.17
2023-03-26T10:36:29.653Z,8.22
2023-03-26T10:37:43.378Z,8.28
2023-03-26T10:39:03.338Z,8.26
2023-03-26T10:40:20.899Z,8.23
2023-03-26T10:41:29.549Z,8.21
2023-03-26T10:42:34.957Z,8.18
2023-03-26T10:44:07.330Z,8.16
2023-03-26T10:45:10.833Z,8.20
2023-03-26T10:46:31.696Z,8.23
2023-03-26T10:47:50.785Z,8.30
2023-03-26T10:49:03.519Z,8.32
2023-03-26T10:50:29.176Z,8.33
2023-03-26T10:51:51.463Z,8.33
2023-03-26T10:53:00.102Z,8.25
2023-03-26T10:54:07.483Z,8.17
2023-03-26T10:55:35.271Z,8.10
2023-03-26T10:56:39.990Z,8.07
2023-03-26T10:57:45.811Z,8.09
2023-03-26T10:58:50.614Z,8.12
2023-03-26T10:59:56.500Z,8.19
2023-03-26T11:01:06.100Z,8.22
2023-03-26T11:02:36.970Z,8.23
2023-03-26T11:03:45.670Z,8.21
2023-03-26T11:04:59.343Z,8.25
2023-03-26T11:06:00.954Z,8.28
2023-03-26T11:07:21.073Z,8.30
2023-03-26T11:08:49.728Z,8.33
2023-03-26T11:10:06.367Z,8.39
2023-03-26T11:11:26.628Z,8.45
2023-03-26T11:12:46.696Z,8.52
2023-03-26T11:14:11.460Z,8.59
2023-03-26T11:15:22.713Z,8.68
2023-03-26T11:16:33.471Z,8.77
2023-03-26T11:17:53.615Z,8.86
2023-03-26T11:19:06.229Z,8.96
2023-03-26T11:20:08.410Z,9.00
2023-03-26T11:21:26.532Z,9.01
2023-03-26T11:22:37.286Z,9.03
2023-03-26T11:23:49.823Z,9.02
2023-03-26T11:25:06.925Z,9.00
2023-03-26T11:26:23.430Z,8.98
2023-03-26T11:27:36.277Z,8.94
2023-03-26T11:29:03.309Z,8.89
2023-03-26T11:30:06.347Z,8.83
2023-03-26T11:31:22.341Z,8.81
2023-03-26T11:32:27.308Z,8.75
2023-03-26T11:33:34.889Z,8.75
2023-03-26T11:34:38.934Z,8.72
2023-03-26T11:35:42.941Z,8.75
2023-03-26T11:36:50.468Z,8.80
2023-03-26T11:37:53.682Z,8.86
2023-03-26T11:38:58.792Z,8.93
2023-03-26T11:40:11.537Z,9.01
2023-03-26T11:41:22.889Z,9.09
2023-03-26T11:42:34.553Z,9.21
2023-03-26T11:43:36.743Z,9.28
2023-03-26T11:44:42.098Z,9.33
2023-03-26T11:45:51.877Z,9.37
2023-03-26T11:46:58.797Z,9.43
2023-03-26T11:48:18.304Z,9.44
2023-03-26T11:49:22.156Z,9.41
2023-03-26T11:50:27.688Z,9.35
2023-03-26T11:51:36.744Z,9.21
2023-03-26T11:52:38.454Z,9.16
2023-03-26T11:53:39.991Z,9.09
2023-03-26T11:54:43.479Z,9.05
2023-03-26T11:55:49.049Z,9.02
2023-03-26T11:57:04.458Z,9.02
2023-03-26T11:58:17.493Z,9.03
2023-03-26T11:59:21.256Z,9.07
2023-03-26T12:00:27.690Z,9.03
2023-03-26T12:01:44.330Z,9.06
2023-03-26T12:02:49.604Z,9.12
2023-03-26T12:04:05.671Z,9.17
2023-03-26T12:05:16.382Z,9.24
2023-03-26T12:06:25.653Z,9.31
2023-03-26T12:07:33.487Z,9.33
2023-03-26T12:08:38.573Z,9.37
2023-03-26T12:09:52.018Z,9.39
2023-03-26T12:11:10.991Z,9.42
2023-03-26T12:12:12.470Z,9.43
2023-03-26T12:13:26.483Z,9.41
2023-03-26T12:14:29.482Z,9.35
2023-03-26T12:15:32.130Z,9.29
2023-03-26T12:16:34.424Z,9.26
2023-03-26T12:17:37.330Z,9.26
2023-03-26T12:18:41.027Z,9.24
2023-03-26T12:19:45.568Z,9.22
2023-03-26T12:20:48.490Z,9.22
2023-03-26T12:21:51.425Z,9.20
2023-03-26T12:22:53.797Z,9.19
2023-03-26T12:23:56.295Z,9.21
2023-03-26T12:25:01.387Z,9.23
2023-03-26T12:26:17.327Z,9.28
2023-03-26T12:27:21.768Z,9.34
2023-03-26T12:28:25.407Z,9.39
2023-03-26T12:29:34.397Z,9.44
2023-03-26T12:30:39.676Z,9.49
2023-03-26T12:32:04.575Z,9.53
2023-03-26T12:33:08.270Z,9.58
2023-03-26T12:34:15.330Z,9.62
2023-03-26T12:35:18.739Z,9.68
2023-03-26T12:36:27.716Z,9.74
2023-03-26T12:37:42.964Z,9.77
2023-03-26T12:39:15.868Z,9.78
2023-03-26T12:40:27.632Z,9.80
2023-03-26T12:43:40.602Z,9.82
2023-03-26T12:44:54.772Z,9.75
2023-03-26T12:44:55.788Z,9.83
2023-03-26T12:47:56.432Z,9.74
2023-03-26T12:47:58.042Z,9.75
2023-03-26T12:48:37.695Z,9.77
2023-03-26T12:49:39.156Z,9.79
2023-03-26T12:50:58.019Z,9.82
2023-03-26T12:52:13.608Z,9.82
2023-03-26T12:53:31.961Z,9.83
2023-03-26T12:54:55.501Z,9.79
2023-03-26T12:56:19.996Z,9.80
2023-03-26T12:57:21.665Z,9.77
2023-03-26T12:58:33.775Z,9.74
2023-03-26T12:59:47.575Z,9.63
2023-03-26T13:00:56.693Z,9.54
2023-03-26T13:01:58.369Z,9.48
2023-03-26T13:03:24.824Z,9.46
2023-03-26T13:04:43.637Z,9.46
2023-03-26T13:05:50.717Z,9.38
2023-03-26T13:07:00.567Z,9.35
2023-03-26T13:08:15.822Z,9.34
2023-03-26T13:09:25.351Z,9.33
2023-03-26T13:10:33.623Z,9.36
2023-03-26T13:11:48.386Z,9.38
2023-03-26T13:12:59.756Z,9.40
2023-03-26T13:14:10.000Z,9.39
2023-03-26T13:15:22.641Z,9.39
2023-03-26T13:16:44.660Z,9.40
2023-03-26T13:17:46.431Z,9.43
2023-03-26T13:19:01.620Z,9.44
2023-03-26T13:20:12.369Z,9.46
2023-03-26T13:21:21.609Z,9.43
2023-03-26T13:22:32.676Z,9.35
2023-03-26T13:23:37.228Z,9.33
2023-03-26T13:25:02.915Z,9.28
2023-03-26T13:26:16.828Z,9.31
2023-03-26T13:27:18.322Z,9.31
2023-03-26T13:28:25.688Z,9.31
2023-03-26T13:29:32.230Z,9.31
2023-03-26T13:30:39.143Z,9.33
2023-03-26T13:31:43.392Z,9.34
2023-03-26T13:32:58.592Z,9.37
2023-03-26T13:34:23.460Z,9.39
2023-03-26T13:35:44.041Z,9.43
2023-03-26T13:37:04.583Z,9.47
2023-03-26T13:38:11.531Z,9.50
2023-03-26T13:39:31.619Z,9.53
2023-03-26T13:40:42.500Z,9.55
2023-03-26T13:41:59.158Z,9.58
2023-03-26T13:43:03.552Z,9.61
2023-03-26T13:44:15.826Z,9.64
2023-03-26T13:45:25.340Z,9.66
2023-03-26T13:46:31.288Z,9.70
2023-03-26T13:47:35.737Z,9.72
2023-03-26T13:48:47.540Z,9.73
2023-03-26T13:49:56.344Z,9.71
2023-03-26T13:51:01.800Z,9.73
2023-03-26T13:52:07.241Z,9.69
2023-03-26T13:53:20.782Z,9.67
2023-03-26T13:54:40.141Z,9.66
2023-03-26T13:55:47.743Z,9.64
2023-03-26T13:57:00.345Z,9.61
2023-03-26T13:58:13.777Z,9.58
2023-03-26T13:59:30.226Z,9.56
2023-03-26T14:00:43.714Z,9.55
2023-03-26T14:01:52.458Z,9.55
2023-03-26T14:02:57.981Z,9.54
2023-03-26T14:04:05.731Z,9.55
2023-03-26T14:05:12.999Z,9.57
2023-03-26T14:06:33.980Z,9.59
2023-03-26T14:07:43.332Z,9.61
2023-03-26T14:08:47.785Z,9.63
2023-03-26T14:10:08.283Z,9.63
2023-03-26T14:11:28.842Z,9.66
2023-03-26T14:12:49.059Z,9.70
2023-03-26T14:13:57.129Z,9.72
2023-03-26T14:15:13.818Z,9.75
2023-03-26T14:16:20.579Z,9.77
2023-03-26T14:17:28.833Z,9.80
2023-03-26T14:18:44.950Z,9.83
2023-03-26T14:20:05.302Z,9.85
2023-03-26T14:21:09.829Z,9.82
2023-03-26T14:22:11.207Z,9.82
2023-03-26T14:23:21.530Z,9.83
2023-03-26T14:24:26.039Z,9.83
2023-03-26T14:25:27.548Z,9.84
2023-03-26T14:26:47.715Z,9.76
2023-03-26T14:28:13.387Z,9.73
2023-03-26T14:29:15.142Z,9.74
2023-03-26T14:30:40.905Z,9.74
2023-03-26T14:32:02.478Z,9.72
2023-03-26T14:33:28.685Z,9.68
2023-03-26T14:34:36.066Z,9.67
2023-03-26T14:36:07.138Z,9.69
2023-03-26T14:37:28.759Z,9.71
2023-03-26T14:38:36.104Z,9.68
2023-03-26T14:39:44.866Z,9.66
2023-03-26T14:40:46.453Z,9.63
2023-03-26T14:41:50.373Z,9.58
2023-03-26T14:43:10.758Z,9.57
2023-03-26T14:44:24.444Z,9.50
2023-03-26T14:45:37.332Z,9.45
2023-03-26T14:46:57.787Z,9.40
2023-03-26T14:48:14.080Z,9.38
2023-03-26T14:49:33.994Z,9.39
2023-03-26T14:50:57.061Z,9.41
2023-03-26T14:52:04.865Z,9.44
2023-03-26T14:53:13.450Z,9.44
2023-03-26T14:54:18.727Z,9.43
2023-03-26T14:55:21.545Z,9.42
2023-03-26T14:56:23.001Z,9.39
2023-03-26T14:57:39.745Z,9.39
2023-03-26T14:58:53.313Z,9.40
2023-03-26T15:00:16.190Z,9.41
2023-03-26T15:01:23.121Z,9.40
2023-03-26T15:02:43.469Z,9.39
2023-03-26T15:03:49.183Z,9.39
2023-03-26T15:04:53.221Z,9.38
2023-03-26T15:06:07.728Z,9.37
2023-03-26T15:07:21.497Z,9.36
2023-03-26T15:08:41.705Z,9.31
2023-03-26T15:09:52.234Z,9.26
2023-03-26T15:10:56.380Z,9.22
2023-03-26T15:12:14.378Z,9.19
2023-03-26T15:13:15.964Z,9.19
2023-03-26T15:14:36.249Z,9.18
2023-03-26T15:15:43.813Z,9.19
2023-03-26T15:17:06.196Z,9.21
2023-03-26T15:18:19.656Z,9.23
2023-03-26T15:19:40.625Z,9.24
2023-03-26T15:20:42.017Z,9.28
2023-03-26T15:21:52.599Z,9.30
2023-03-26T15:23:03.146Z,9.33
2023-03-26T15:24:23.644Z,9.33
2023-03-26T15:25:43.966Z,9.35
2023-03-26T15:27:03.985Z,9.36
2023-03-26T15:28:14.698Z,9.35
2023-03-26T15:29:35.564Z,9.34
2023-03-26T15:30:39.961Z,9.32
2023-03-26T15:31:52.842Z,9.30
2023-03-26T15:33:06.268Z,9.28
2023-03-26T15:34:25.480Z,9.23
2023-03-26T15:35:33.096Z,9.19
2023-03-26T15:36:38.216Z,9.16
2023-03-26T15:37:51.423Z,9.12
2023-03-26T15:39:12.003Z,9.09
2023-03-26T15:40:32.025Z,9.06
2023-03-26T15:41:41.948Z,9.08
2023-03-26T15:43:01.861Z,9.05
2023-03-26T15:44:24.339Z,9.05
2023-03-26T15:45:26.811Z,9.07
2023-03-26T15:46:29.874Z,9.09
2023-03-26T15:47:40.406Z,9.12
2023-03-26T15:48:51.450Z,9.14
2023-03-26T15:49:53.751Z,9.16